sensor_id;sensor_type;location;lat;lon;timestamp;temperature;humidity
40534;DHT22;26233;51.894;10.192;2023-02-15T00:00:46;7.10;44.20
40534;DHT22;26233;51.894;10.192;2023-02-15T00:03:15;7.00;44.20
40534;DHT22;26233;51.894;10.192;2023-02-15T00:05:44;7.00;44.40
40534;DHT22;26233;51.894;10.192;2023-02-15T00:08:11;6.90;44.30
40534;DHT22;26233;51.894;10.192;2023-02-15T00:10:38;6.90;44.40
40534;DHT22;26233;51.894;10.192;2023-02-15T00:13:04;6.80;44.40
40534;DHT22;26233;51.894;10.192;2023-02-15T00:15:31;6.80;44.40
40534;DHT22;26233;51.894;10.192;2023-02-15T00:17:58;6.70;44.30
40534;DHT22;26233;51.894;10.192;2023-02-15T00:20:25;6.70;44.40
40534;DHT22;26233;51.894;10.192;2023-02-15T00:22:54;6.70;44.50
40534;DHT22;26233;51.894;10.192;2023-02-15T00:25:21;6.60;44.50
40534;DHT22;26233;51.894;10.192;2023-02-15T00:27:48;6.60;44.60
40534;DHT22;26233;51.894;10.192;2023-02-15T00:30:16;6.60;44.90
40534;DHT22;26233;51.894;10.192;2023-02-15T00:32:43;6.70;45.10
40534;DHT22;26233;51.894;10.192;2023-02-15T00:35:10;6.70;45.10
40534;DHT22;26233;51.894;10.192;2023-02-15T00:37:37;6.80;45.30
40534;DHT22;26233;51.894;10.192;2023-02-15T00:40:07;6.80;45.40
40534;DHT22;26233;51.894;10.192;2023-02-15T00:42:34;6.90;45.50
40534;DHT22;26233;51.894;10.192;2023-02-15T00:45:01;7.10;45.60
40534;DHT22;26233;51.894;10.192;2023-02-15T00:47:28;7.10;45.50
40534;DHT22;26233;51.894;10.192;2023-02-15T00:49:56;7.20;45.50
40534;DHT22;26233;51.894;10.192;2023-02-15T00:52:23;7.30;45.50
40534;DHT22;26233;51.894;10.192;2023-02-15T00:54:50;7.50;45.40
40534;DHT22;26233;51.894;10.192;2023-02-15T00:57:18;7.40;45.20
40534;DHT22;26233;51.894;10.192;2023-02-15T00:59:45;7.50;45.10
40534;DHT22;26233;51.894;10.192;2023-02-15T01:02:12;7.40;44.90
40534;DHT22;26233;51.894;10.192;2023-02-15T01:04:39;7.50;45.00
40534;DHT22;26233;51.894;10.192;2023-02-15T01:07:06;7.40;44.80
40534;DHT22;26233;51.894;10.192;2023-02-15T01:09:34;7.40;44.80
40534;DHT22;26233;51.894;10.192;2023-02-15T01:12:01;7.30;44.70
40534;DHT22;26233;51.894;10.192;2023-02-15T01:14:29;7.30;44.70
40534;DHT22;26233;51.894;10.192;2023-02-15T01:16:56;7.20;44.60
40534;DHT22;26233;51.894;10.192;2023-02-15T01:19:23;7.20;44.70
40534;DHT22;26233;51.894;10.192;2023-02-15T01:21:52;7.10;45.20
40534;DHT22;26233;51.894;10.192;2023-02-15T01:24:19;7.00;44.50
40534;DHT22;26233;51.894;10.192;2023-02-15T01:26:46;7.00;44.60
40534;DHT22;26233;51.894;10.192;2023-02-15T01:29:13;6.90;44.60
40534;DHT22;26233;51.894;10.192;2023-02-15T01:31:42;6.90;44.60
40534;DHT22;26233;51.894;10.192;2023-02-15T01:34:10;6.80;44.60
40534;DHT22;26233;51.894;10.192;2023-02-15T01:36:37;6.80;44.60
40534;DHT22;26233;51.894;10.192;2023-02-15T01:39:04;6.80;44.70
40534;DHT22;26233;51.894;10.192;2023-02-15T01:41:33;6.70;44.60
40534;DHT22;26233;51.894;10.192;2023-02-15T01:44:01;6.60;44.50
40534;DHT22;26233;51.894;10.192;2023-02-15T01:46:34;6.50;44.40
40534;DHT22;26233;51.894;10.192;2023-02-15T01:49:08;6.40;44.40
40534;DHT22;26233;51.894;10.192;2023-02-15T01:51:39;6.40;44.70
40534;DHT22;26233;51.894;10.192;2023-02-15T01:54:11;6.30;44.70
40534;DHT22;26233;51.894;10.192;2023-02-15T01:56:42;6.30;44.90
40534;DHT22;26233;51.894;10.192;2023-02-15T01:59:13;6.20;45.00
40534;DHT22;26233;51.894;10.192;2023-02-15T02:01:41;6.20;45.20
40534;DHT22;26233;51.894;10.192;2023-02-15T02:04:15;6.30;46.00
40534;DHT22;26233;51.894;10.192;2023-02-15T02:06:44;6.30;45.40
40534;DHT22;26233;51.894;10.192;2023-02-15T02:09:14;6.30;45.30
40534;DHT22;26233;51.894;10.192;2023-02-15T02:11:41;6.30;45.30
40534;DHT22;26233;51.894;10.192;2023-02-15T02:14:11;6.30;45.20
40534;DHT22;26233;51.894;10.192;2023-02-15T02:16:45;6.30;45.30
40534;DHT22;26233;51.894;10.192;2023-02-15T02:19:46;6.30;45.30
40534;DHT22;26233;51.894;10.192;2023-02-15T02:23:15;6.30;45.50
40534;DHT22;26233;51.894;10.192;2023-02-15T02:26:37;6.40;45.50
40534;DHT22;26233;51.894;10.192;2023-02-15T02:36:02;6.30;45.20
40534;DHT22;26233;51.894;10.192;2023-02-15T02:38:42;6.30;45.10
40534;DHT22;26233;51.894;10.192;2023-02-15T02:41:26;6.30;45.10
40534;DHT22;26233;51.894;10.192;2023-02-15T02:44:04;6.30;45.10
40534;DHT22;26233;51.894;10.192;2023-02-15T02:46:39;6.30;45.10
40534;DHT22;26233;51.894;10.192;2023-02-15T02:49:14;6.30;45.10
40534;DHT22;26233;51.894;10.192;2023-02-15T02:51:41;6.20;45.00
40534;DHT22;26233;51.894;10.192;2023-02-15T02:54:08;6.20;45.00
40534;DHT22;26233;51.894;10.192;2023-02-15T02:56:37;6.20;45.00
40534;DHT22;26233;51.894;10.192;2023-02-15T02:59:11;6.20;44.90
40534;DHT22;26233;51.894;10.192;2023-02-15T03:01:44;6.20;45.00
40534;DHT22;26233;51.894;10.192;2023-02-15T03:04:16;6.10;44.90
40534;DHT22;26233;51.894;10.192;2023-02-15T03:06:48;6.10;44.80
40534;DHT22;26233;51.894;10.192;2023-02-15T03:09:23;6.00;44.80
40534;DHT22;26233;51.894;10.192;2023-02-15T03:12:08;5.90;44.80
40534;DHT22;26233;51.894;10.192;2023-02-15T03:14:36;5.90;44.80
40534;DHT22;26233;51.894;10.192;2023-02-15T03:17:04;5.80;44.80
40534;DHT22;26233;51.894;10.192;2023-02-15T03:19:36;5.80;44.90
40534;DHT22;26233;51.894;10.192;2023-02-15T03:22:06;5.80;44.90
40534;DHT22;26233;51.894;10.192;2023-02-15T03:24:37;5.70;44.80
40534;DHT22;26233;51.894;10.192;2023-02-15T03:27:10;5.70;44.90
40534;DHT22;26233;51.894;10.192;2023-02-15T03:29:43;5.70;45.00
40534;DHT22;26233;51.894;10.192;2023-02-15T03:32:13;5.60;44.90
40534;DHT22;26233;51.894;10.192;2023-02-15T03:34:43;5.60;45.00
40534;DHT22;26233;51.894;10.192;2023-02-15T03:37:13;5.60;45.10
40534;DHT22;26233;51.894;10.192;2023-02-15T03:39:48;5.60;45.10
40534;DHT22;26233;51.894;10.192;2023-02-15T03:42:24;5.60;45.20
40534;DHT22;26233;51.894;10.192;2023-02-15T03:44:57;5.60;45.10
40534;DHT22;26233;51.894;10.192;2023-02-15T03:47:28;5.60;45.10
40534;DHT22;26233;51.894;10.192;2023-02-15T03:50:01;5.50;45.00
40534;DHT22;26233;51.894;10.192;2023-02-15T03:52:50;5.50;45.00
40534;DHT22;26233;51.894;10.192;2023-02-15T03:55:17;5.50;44.90
40534;DHT22;26233;51.894;10.192;2023-02-15T03:57:44;5.50;44.90
40534;DHT22;26233;51.894;10.192;2023-02-15T04:00:31;5.40;44.80
40534;DHT22;26233;51.894;10.192;2023-02-15T04:03:24;5.40;44.90
40534;DHT22;26233;51.894;10.192;2023-02-15T04:05:58;5.40;44.90
40534;DHT22;26233;51.894;10.192;2023-02-15T04:08:25;5.40;44.90
40534;DHT22;26233;51.894;10.192;2023-02-15T04:11:12;5.50;45.00
40534;DHT22;26233;51.894;10.192;2023-02-15T04:13:38;5.40;45.00
40534;DHT22;26233;51.894;10.192;2023-02-15T04:16:05;5.40;44.90
40534;DHT22;26233;51.894;10.192;2023-02-15T04:18:32;5.40;44.90
40534;DHT22;26233;51.894;10.192;2023-02-15T04:21:20;5.30;44.80
40534;DHT22;26233;51.894;10.192;2023-02-15T04:24:06;5.30;44.90
40534;DHT22;26233;51.894;10.192;2023-02-15T04:26:51;5.30;45.00
40534;DHT22;26233;51.894;10.192;2023-02-15T04:29:19;5.30;45.10
40534;DHT22;26233;51.894;10.192;2023-02-15T04:31:46;5.30;45.00
40534;DHT22;26233;51.894;10.192;2023-02-15T04:34:13;5.30;45.00
40534;DHT22;26233;51.894;10.192;2023-02-15T04:36:42;5.30;45.00
40534;DHT22;26233;51.894;10.192;2023-02-15T04:39:12;5.30;45.10
40534;DHT22;26233;51.894;10.192;2023-02-15T04:41:40;5.40;45.20
40534;DHT22;26233;51.894;10.192;2023-02-15T04:44:07;5.40;45.20
40534;DHT22;26233;51.894;10.192;2023-02-15T04:46:34;5.40;45.00
40534;DHT22;26233;51.894;10.192;2023-02-15T04:49:01;5.40;45.10
40534;DHT22;26233;51.894;10.192;2023-02-15T04:51:28;5.40;45.10
40534;DHT22;26233;51.894;10.192;2023-02-15T04:53:57;5.30;45.00
40534;DHT22;26233;51.894;10.192;2023-02-15T04:56:24;5.30;45.10
40534;DHT22;26233;51.894;10.192;2023-02-15T04:58:53;5.30;45.10
40534;DHT22;26233;51.894;10.192;2023-02-15T05:01:20;5.30;45.20
40534;DHT22;26233;51.894;10.192;2023-02-15T05:03:47;5.30;45.20
40534;DHT22;26233;51.894;10.192;2023-02-15T05:06:14;5.40;45.20
40534;DHT22;26233;51.894;10.192;2023-02-15T05:08:41;5.40;45.20
40534;DHT22;26233;51.894;10.192;2023-02-15T05:11:10;5.40;45.20
40534;DHT22;26233;51.894;10.192;2023-02-15T05:13:37;5.40;45.20
40534;DHT22;26233;51.894;10.192;2023-02-15T05:16:04;5.40;45.10
40534;DHT22;26233;51.894;10.192;2023-02-15T05:18:31;5.40;45.10
40534;DHT22;26233;51.894;10.192;2023-02-15T05:20:59;5.40;45.10
40534;DHT22;26233;51.894;10.192;2023-02-15T05:23:26;5.30;45.00
40534;DHT22;26233;51.894;10.192;2023-02-15T05:25:53;5.30;44.90
40534;DHT22;26233;51.894;10.192;2023-02-15T05:28:39;5.30;45.00
40534;DHT22;26233;51.894;10.192;2023-02-15T05:31:08;5.20;44.90
40534;DHT22;26233;51.894;10.192;2023-02-15T05:33:38;5.20;44.80
40534;DHT22;26233;51.894;10.192;2023-02-15T05:36:06;5.10;44.80
40534;DHT22;26233;51.894;10.192;2023-02-15T05:38:34;5.10;44.80
40534;DHT22;26233;51.894;10.192;2023-02-15T05:41:02;5.00;44.90
40534;DHT22;26233;51.894;10.192;2023-02-15T05:43:30;5.00;44.90
40534;DHT22;26233;51.894;10.192;2023-02-15T05:45:58;5.00;45.00
40534;DHT22;26233;51.894;10.192;2023-02-15T05:48:26;5.00;45.00
40534;DHT22;26233;51.894;10.192;2023-02-15T05:51:00;4.90;45.00
40534;DHT22;26233;51.894;10.192;2023-02-15T05:53:33;4.90;45.10
40534;DHT22;26233;51.894;10.192;2023-02-15T05:56:01;4.90;45.00
40534;DHT22;26233;51.894;10.192;2023-02-15T05:58:30;4.90;45.00
40534;DHT22;26233;51.894;10.192;2023-02-15T06:01:07;4.80;44.90
40534;DHT22;26233;51.894;10.192;2023-02-15T06:03:37;4.80;45.00
40534;DHT22;26233;51.894;10.192;2023-02-15T06:06:04;4.70;44.90
40534;DHT22;26233;51.894;10.192;2023-02-15T06:08:32;4.80;45.10
40534;DHT22;26233;51.894;10.192;2023-02-15T06:10:59;4.70;45.10
40534;DHT22;26233;51.894;10.192;2023-02-15T06:13:27;4.80;45.10
40534;DHT22;26233;51.894;10.192;2023-02-15T06:15:54;4.70;45.00
40534;DHT22;26233;51.894;10.192;2023-02-15T06:18:22;4.70;45.00
40534;DHT22;26233;51.894;10.192;2023-02-15T06:20:49;4.70;45.20
40534;DHT22;26233;51.894;10.192;2023-02-15T06:23:16;4.70;45.20
40534;DHT22;26233;51.894;10.192;2023-02-15T06:25:45;4.70;45.20
40534;DHT22;26233;51.894;10.192;2023-02-15T06:28:12;4.70;45.20
40534;DHT22;26233;51.894;10.192;2023-02-15T06:30:39;4.60;45.10
40534;DHT22;26233;51.894;10.192;2023-02-15T06:33:06;4.60;45.20
40534;DHT22;26233;51.894;10.192;2023-02-15T06:35:35;4.60;45.10
40534;DHT22;26233;51.894;10.192;2023-02-15T06:38:03;4.60;45.10
40534;DHT22;26233;51.894;10.192;2023-02-15T06:40:30;4.60;44.90
40534;DHT22;26233;51.894;10.192;2023-02-15T06:42:57;4.60;45.00
40534;DHT22;26233;51.894;10.192;2023-02-15T06:45:24;4.50;45.00
40534;DHT22;26233;51.894;10.192;2023-02-15T06:47:51;4.50;45.00
40534;DHT22;26233;51.894;10.192;2023-02-15T06:50:18;4.50;45.00
40534;DHT22;26233;51.894;10.192;2023-02-15T06:52:46;4.50;45.00
40534;DHT22;26233;51.894;10.192;2023-02-15T06:55:13;4.40;45.10
40534;DHT22;26233;51.894;10.192;2023-02-15T06:57:40;4.40;45.70
40534;DHT22;26233;51.894;10.192;2023-02-15T07:00:08;4.40;45.10
40534;DHT22;26233;51.894;10.192;2023-02-15T07:02:36;4.40;45.20
40534;DHT22;26233;51.894;10.192;2023-02-15T07:05:03;4.40;45.10
40534;DHT22;26233;51.894;10.192;2023-02-15T07:07:30;4.40;45.10
40534;DHT22;26233;51.894;10.192;2023-02-15T07:09:59;4.40;45.10
40534;DHT22;26233;51.894;10.192;2023-02-15T07:12:26;4.40;45.10
40534;DHT22;26233;51.894;10.192;2023-02-15T07:15:10;4.40;45.20
40534;DHT22;26233;51.894;10.192;2023-02-15T07:17:38;4.40;45.10
40534;DHT22;26233;51.894;10.192;2023-02-15T07:20:08;4.40;45.10
40534;DHT22;26233;51.894;10.192;2023-02-15T07:22:36;4.40;45.10
40534;DHT22;26233;51.894;10.192;2023-02-15T07:25:07;4.40;45.20
40534;DHT22;26233;51.894;10.192;2023-02-15T07:27:35;4.40;45.20
40534;DHT22;26233;51.894;10.192;2023-02-15T07:30:03;4.50;45.30
40534;DHT22;26233;51.894;10.192;2023-02-15T07:32:31;4.50;46.10
40534;DHT22;26233;51.894;10.192;2023-02-15T07:34:59;4.60;45.80
40534;DHT22;26233;51.894;10.192;2023-02-15T07:37:27;4.70;46.00
40534;DHT22;26233;51.894;10.192;2023-02-15T07:39:54;4.90;46.40
40534;DHT22;26233;51.894;10.192;2023-02-15T07:42:22;5.00;46.60
40534;DHT22;26233;51.894;10.192;2023-02-15T07:44:49;5.20;46.70
40534;DHT22;26233;51.894;10.192;2023-02-15T07:47:16;5.40;46.60
40534;DHT22;26233;51.894;10.192;2023-02-15T07:49:43;5.60;46.70
40534;DHT22;26233;51.894;10.192;2023-02-15T07:52:11;5.80;46.80
40534;DHT22;26233;51.894;10.192;2023-02-15T07:54:38;6.00;46.70
40534;DHT22;26233;51.894;10.192;2023-02-15T07:57:05;6.20;46.70
40534;DHT22;26233;51.894;10.192;2023-02-15T07:59:33;6.40;46.90
40534;DHT22;26233;51.894;10.192;2023-02-15T08:02:02;6.60;47.20
40534;DHT22;26233;51.894;10.192;2023-02-15T08:04:29;6.90;47.70
40534;DHT22;26233;51.894;10.192;2023-02-15T08:06:56;7.20;47.90
40534;DHT22;26233;51.894;10.192;2023-02-15T08:09:23;7.50;47.70
40534;DHT22;26233;51.894;10.192;2023-02-15T08:11:50;7.80;47.50
40534;DHT22;26233;51.894;10.192;2023-02-15T08:14:19;8.10;47.60
40534;DHT22;26233;51.894;10.192;2023-02-15T08:16:50;8.40;47.70
40534;DHT22;26233;51.894;10.192;2023-02-15T08:19:19;8.70;47.50
40534;DHT22;26233;51.894;10.192;2023-02-15T08:21:49;8.90;47.00
40534;DHT22;26233;51.894;10.192;2023-02-15T08:24:18;9.00;46.30
40534;DHT22;26233;51.894;10.192;2023-02-15T08:26:47;9.20;46.10
40534;DHT22;26233;51.894;10.192;2023-02-15T08:29:15;9.20;45.80
40534;DHT22;26233;51.894;10.192;2023-02-15T08:31:44;9.30;45.40
40534;DHT22;26233;51.894;10.192;2023-02-15T08:34:15;9.30;45.10
40534;DHT22;26233;51.894;10.192;2023-02-15T08:36:43;9.10;44.70
40534;DHT22;26233;51.894;10.192;2023-02-15T08:39:12;9.10;44.60
40534;DHT22;26233;51.894;10.192;2023-02-15T08:41:42;9.00;44.40
40534;DHT22;26233;51.894;10.192;2023-02-15T08:44:11;8.80;44.00
40534;DHT22;26233;51.894;10.192;2023-02-15T08:46:39;8.70;44.00
40534;DHT22;26233;51.894;10.192;2023-02-15T08:49:09;8.60;44.40
40534;DHT22;26233;51.894;10.192;2023-02-15T08:51:39;8.60;44.50
40534;DHT22;26233;51.894;10.192;2023-02-15T08:54:09;8.60;44.50
40534;DHT22;26233;51.894;10.192;2023-02-15T08:56:38;8.50;44.30
40534;DHT22;26233;51.894;10.192;2023-02-15T08:59:10;8.50;44.40
40534;DHT22;26233;51.894;10.192;2023-02-15T09:01:38;8.50;44.80
40534;DHT22;26233;51.894;10.192;2023-02-15T09:04:07;8.60;45.10
40534;DHT22;26233;51.894;10.192;2023-02-15T09:06:35;8.70;45.20
40534;DHT22;26233;51.894;10.192;2023-02-15T09:09:04;8.80;45.30
40534;DHT22;26233;51.894;10.192;2023-02-15T09:11:33;8.90;45.30
40534;DHT22;26233;51.894;10.192;2023-02-15T09:14:03;9.00;45.20
40534;DHT22;26233;51.894;10.192;2023-02-15T09:16:32;9.20;45.50
40534;DHT22;26233;51.894;10.192;2023-02-15T09:19:00;9.40;45.70
40534;DHT22;26233;51.894;10.192;2023-02-15T09:21:30;9.60;45.70
40534;DHT22;26233;51.894;10.192;2023-02-15T09:23:58;9.90;45.50
40534;DHT22;26233;51.894;10.192;2023-02-15T09:26:29;10.10;44.70
40534;DHT22;26233;51.894;10.192;2023-02-15T09:28:58;10.40;44.90
40534;DHT22;26233;51.894;10.192;2023-02-15T09:31:29;10.70;45.70
40534;DHT22;26233;51.894;10.192;2023-02-15T09:33:58;11.20;46.20
40534;DHT22;26233;51.894;10.192;2023-02-15T09:36:29;11.60;46.20
40534;DHT22;26233;51.894;10.192;2023-02-15T09:38:59;12.10;46.70
40534;DHT22;26233;51.894;10.192;2023-02-15T09:42:00;12.60;46.70
40534;DHT22;26233;51.894;10.192;2023-02-15T09:44:57;13.10;46.10
40534;DHT22;26233;51.894;10.192;2023-02-15T09:48:01;13.80;46.80
40534;DHT22;26233;51.894;10.192;2023-02-15T09:50:51;14.40;46.50
40534;DHT22;26233;51.894;10.192;2023-02-15T09:53:33;15.00;46.50
40534;DHT22;26233;51.894;10.192;2023-02-15T09:56:09;15.30;45.10
40534;DHT22;26233;51.894;10.192;2023-02-15T09:58:50;15.50;44.50
40534;DHT22;26233;51.894;10.192;2023-02-15T10:01:29;15.50;43.50
40534;DHT22;26233;51.894;10.192;2023-02-15T10:04:14;15.40;42.50
40534;DHT22;26233;51.894;10.192;2023-02-15T10:06:59;15.20;42.20
40534;DHT22;26233;51.894;10.192;2023-02-15T10:09:42;14.90;41.40
40534;DHT22;26233;51.894;10.192;2023-02-15T10:12:52;14.60;40.70
40534;DHT22;26233;51.894;10.192;2023-02-15T10:15:46;14.20;40.50
40534;DHT22;26233;51.894;10.192;2023-02-15T10:18:36;13.90;40.80
40534;DHT22;26233;51.894;10.192;2023-02-15T10:21:21;13.60;41.20
40534;DHT22;26233;51.894;10.192;2023-02-15T10:24:15;13.40;41.20
40534;DHT22;26233;51.894;10.192;2023-02-15T10:27:10;13.30;41.10
40534;DHT22;26233;51.894;10.192;2023-02-15T10:29:43;13.10;41.60
40534;DHT22;26233;51.894;10.192;2023-02-15T10:32:22;13.10;41.90
40534;DHT22;26233;51.894;10.192;2023-02-15T10:34:52;13.20;42.50
40534;DHT22;26233;51.894;10.192;2023-02-15T10:37:42;13.40;43.50
40534;DHT22;26233;51.894;10.192;2023-02-15T10:40:26;13.70;43.30
40534;DHT22;26233;51.894;10.192;2023-02-15T10:43:14;14.10;44.00
40534;DHT22;26233;51.894;10.192;2023-02-15T10:45:56;14.50;43.60
40534;DHT22;26233;51.894;10.192;2023-02-15T10:48:43;14.90;44.00
40534;DHT22;26233;51.894;10.192;2023-02-15T10:51:22;15.20;43.10
40534;DHT22;26233;51.894;10.192;2023-02-15T10:54:04;15.60;44.10
40534;DHT22;26233;51.894;10.192;2023-02-15T10:56:40;15.90;43.90
40534;DHT22;26233;51.894;10.192;2023-02-15T10:59:29;16.30;43.50
40534;DHT22;26233;51.894;10.192;2023-02-15T11:02:17;16.40;41.50
40534;DHT22;26233;51.894;10.192;2023-02-15T11:05:02;16.60;42.20
40534;DHT22;26233;51.894;10.192;2023-02-15T11:07:39;16.60;41.20
40534;DHT22;26233;51.894;10.192;2023-02-15T11:10:21;16.70;42.00
40534;DHT22;26233;51.894;10.192;2023-02-15T11:12:53;16.70;41.60
40534;DHT22;26233;51.894;10.192;2023-02-15T11:15:26;16.90;42.30
40534;DHT22;26233;51.894;10.192;2023-02-15T11:18:01;17.00;41.80
40534;DHT22;26233;51.894;10.192;2023-02-15T11:20:37;17.20;42.20
40534;DHT22;26233;51.894;10.192;2023-02-15T11:23:16;17.50;42.50
40534;DHT22;26233;51.894;10.192;2023-02-15T11:25:46;17.70;41.70
40534;DHT22;26233;51.894;10.192;2023-02-15T11:28:25;17.90;42.00
40534;DHT22;26233;51.894;10.192;2023-02-15T11:30:58;17.90;41.10
40534;DHT22;26233;51.894;10.192;2023-02-15T11:33:33;18.00;41.70
40534;DHT22;26233;51.894;10.192;2023-02-15T11:36:07;18.00;41.50
40534;DHT22;26233;51.894;10.192;2023-02-15T11:38:36;18.10;41.50
40534;DHT22;26233;51.894;10.192;2023-02-15T11:41:09;18.20;41.80
40534;DHT22;26233;51.894;10.192;2023-02-15T11:43:39;18.20;41.10
40534;DHT22;26233;51.894;10.192;2023-02-15T11:46:11;18.10;40.60
40534;DHT22;26233;51.894;10.192;2023-02-15T11:48:40;18.00;40.60
40534;DHT22;26233;51.894;10.192;2023-02-15T11:51:14;18.00;40.40
40534;DHT22;26233;51.894;10.192;2023-02-15T11:53:45;17.80;39.80
40534;DHT22;26233;51.894;10.192;2023-02-15T11:56:14;17.70;39.50
40534;DHT22;26233;51.894;10.192;2023-02-15T11:58:47;17.50;39.50
40534;DHT22;26233;51.894;10.192;2023-02-15T12:01:20;17.40;39.30
40534;DHT22;26233;51.894;10.192;2023-02-15T12:03:52;17.30;39.30
40534;DHT22;26233;51.894;10.192;2023-02-15T12:06:26;17.20;39.30
40534;DHT22;26233;51.894;10.192;2023-02-15T12:09:01;17.10;39.00
40534;DHT22;26233;51.894;10.192;2023-02-15T12:11:34;17.00;39.00
40534;DHT22;26233;51.894;10.192;2023-02-15T12:14:05;16.90;38.90
40534;DHT22;26233;51.894;10.192;2023-02-15T12:16:41;16.80;38.90
40534;DHT22;26233;51.894;10.192;2023-02-15T12:19:27;16.70;38.70
40534;DHT22;26233;51.894;10.192;2023-02-15T12:21:58;16.60;38.50
40534;DHT22;26233;51.894;10.192;2023-02-15T12:24:29;16.60;39.80
40534;DHT22;26233;51.894;10.192;2023-02-15T12:27:02;16.60;39.00
40534;DHT22;26233;51.894;10.192;2023-02-15T12:29:34;16.50;38.10
40534;DHT22;26233;51.894;10.192;2023-02-15T12:32:03;16.50;38.70
40534;DHT22;26233;51.894;10.192;2023-02-15T12:34:32;16.50;38.90
40534;DHT22;26233;51.894;10.192;2023-02-15T12:37:14;16.40;38.80
40534;DHT22;26233;51.894;10.192;2023-02-15T12:39:51;16.50;38.70
40534;DHT22;26233;51.894;10.192;2023-02-15T12:42:20;16.40;38.20
40534;DHT22;26233;51.894;10.192;2023-02-15T12:45:00;16.40;38.80
40534;DHT22;26233;51.894;10.192;2023-02-15T12:47:28;16.40;38.30
40534;DHT22;26233;51.894;10.192;2023-02-15T12:50:07;16.50;38.90
40534;DHT22;26233;51.894;10.192;2023-02-15T12:52:44;16.50;38.80
40534;DHT22;26233;51.894;10.192;2023-02-15T12:55:20;16.60;38.70
40534;DHT22;26233;51.894;10.192;2023-02-15T12:57:49;16.60;38.40
40534;DHT22;26233;51.894;10.192;2023-02-15T13:00:32;16.50;38.50
40534;DHT22;26233;51.894;10.192;2023-02-15T13:03:00;16.50;38.50
40534;DHT22;26233;51.894;10.192;2023-02-15T13:05:32;16.50;38.50
40534;DHT22;26233;51.894;10.192;2023-02-15T13:08:09;16.40;38.00
40534;DHT22;26233;51.894;10.192;2023-02-15T13:10:41;16.40;37.80
40534;DHT22;26233;51.894;10.192;2023-02-15T13:13:21;16.40;37.90
40534;DHT22;26233;51.894;10.192;2023-02-15T13:15:51;16.30;37.80
40534;DHT22;26233;51.894;10.192;2023-02-15T13:18:28;16.20;37.70
40534;DHT22;26233;51.894;10.192;2023-02-15T13:20:58;16.10;37.40
40534;DHT22;26233;51.894;10.192;2023-02-15T13:23:32;16.00;37.60
40534;DHT22;26233;51.894;10.192;2023-02-15T13:26:03;15.90;37.80
40534;DHT22;26233;51.894;10.192;2023-02-15T13:28:37;15.90;37.80
40534;DHT22;26233;51.894;10.192;2023-02-15T13:31:12;15.80;37.60
40534;DHT22;26233;51.894;10.192;2023-02-15T13:33:43;15.80;37.50
40534;DHT22;26233;51.894;10.192;2023-02-15T13:36:18;15.80;37.50
40534;DHT22;26233;51.894;10.192;2023-02-15T13:38:57;15.70;37.70
40534;DHT22;26233;51.894;10.192;2023-02-15T13:41:33;15.70;37.40
40534;DHT22;26233;51.894;10.192;2023-02-15T13:44:09;15.70;37.50
40534;DHT22;26233;51.894;10.192;2023-02-15T13:46:52;15.60;37.30
40534;DHT22;26233;51.894;10.192;2023-02-15T13:49:39;15.50;37.10
40534;DHT22;26233;51.894;10.192;2023-02-15T13:52:20;15.50;37.70
40534;DHT22;26233;51.894;10.192;2023-02-15T13:55:08;15.50;37.50
40534;DHT22;26233;51.894;10.192;2023-02-15T13:58:08;15.50;37.50
40534;DHT22;26233;51.894;10.192;2023-02-15T14:00:48;15.40;37.40
40534;DHT22;26233;51.894;10.192;2023-02-15T14:03:48;15.40;37.80
40534;DHT22;26233;51.894;10.192;2023-02-15T14:06:51;15.40;37.60
40534;DHT22;26233;51.894;10.192;2023-02-15T14:09:32;15.20;37.40
40534;DHT22;26233;51.894;10.192;2023-02-15T14:12:21;15.20;37.60
40534;DHT22;26233;51.894;10.192;2023-02-15T14:15:26;15.20;37.60
40534;DHT22;26233;51.894;10.192;2023-02-15T14:18:07;15.10;37.40
40534;DHT22;26233;51.894;10.192;2023-02-15T14:20:51;15.00;37.50
40534;DHT22;26233;51.894;10.192;2023-02-15T14:23:37;15.00;37.60
40534;DHT22;26233;51.894;10.192;2023-02-15T14:26:16;15.00;37.60
40534;DHT22;26233;51.894;10.192;2023-02-15T14:28:54;15.00;37.80
40534;DHT22;26233;51.894;10.192;2023-02-15T14:31:30;15.00;37.70
40534;DHT22;26233;51.894;10.192;2023-02-15T14:34:00;15.00;37.80
40534;DHT22;26233;51.894;10.192;2023-02-15T14:36:30;15.00;37.90
40534;DHT22;26233;51.894;10.192;2023-02-15T14:39:06;15.00;37.90
40534;DHT22;26233;51.894;10.192;2023-02-15T14:41:58;14.90;37.70
40534;DHT22;26233;51.894;10.192;2023-02-15T14:44:35;14.90;37.70
40534;DHT22;26233;51.894;10.192;2023-02-15T14:47:07;14.90;37.50
40534;DHT22;26233;51.894;10.192;2023-02-15T14:49:39;14.80;37.50
40534;DHT22;26233;51.894;10.192;2023-02-15T14:52:07;14.70;37.30
40534;DHT22;26233;51.894;10.192;2023-02-15T14:54:58;14.60;37.20
40534;DHT22;26233;51.894;10.192;2023-02-15T14:57:27;14.40;36.80
40534;DHT22;26233;51.894;10.192;2023-02-15T14:59:58;14.20;37.00
40534;DHT22;26233;51.894;10.192;2023-02-15T15:02:42;14.10;37.00
40534;DHT22;26233;51.894;10.192;2023-02-15T15:05:17;14.00;37.00
40534;DHT22;26233;51.894;10.192;2023-02-15T15:07:47;13.90;37.10
40534;DHT22;26233;51.894;10.192;2023-02-15T15:10:36;13.70;37.00
40534;DHT22;26233;51.894;10.192;2023-02-15T15:16:31;13.50;36.90
40534;DHT22;26233;51.894;10.192;2023-02-15T15:22:39;13.30;37.60
40534;DHT22;26233;51.894;10.192;2023-02-15T15:25:40;13.20;37.20
40534;DHT22;26233;51.894;10.192;2023-02-15T15:28:07;13.10;37.00
40534;DHT22;26233;51.894;10.192;2023-02-15T15:31:00;13.10;37.30
40534;DHT22;26233;51.894;10.192;2023-02-15T15:33:57;13.00;37.10
40534;DHT22;26233;51.894;10.192;2023-02-15T15:37:13;12.90;37.10
40534;DHT22;26233;51.894;10.192;2023-02-15T15:40:19;12.90;37.10
40534;DHT22;26233;51.894;10.192;2023-02-15T15:43:41;12.80;37.10
40534;DHT22;26233;51.894;10.192;2023-02-15T15:46:40;12.70;37.10
40534;DHT22;26233;51.894;10.192;2023-02-15T15:49:19;12.60;37.20
40534;DHT22;26233;51.894;10.192;2023-02-15T15:51:47;12.50;37.20
40534;DHT22;26233;51.894;10.192;2023-02-15T15:54:19;12.50;37.20
40534;DHT22;26233;51.894;10.192;2023-02-15T15:56:50;12.40;37.20
40534;DHT22;26233;51.894;10.192;2023-02-15T15:59:22;12.30;37.20
40534;DHT22;26233;51.894;10.192;2023-02-15T16:01:51;12.30;37.30
40534;DHT22;26233;51.894;10.192;2023-02-15T16:04:27;12.20;37.20
40534;DHT22;26233;51.894;10.192;2023-02-15T16:06:56;12.20;37.30
40534;DHT22;26233;51.894;10.192;2023-02-15T16:09:25;12.10;37.20
40534;DHT22;26233;51.894;10.192;2023-02-15T16:11:55;12.00;37.10
40534;DHT22;26233;51.894;10.192;2023-02-15T16:14:29;12.00;37.20
40534;DHT22;26233;51.894;10.192;2023-02-15T16:17:00;11.90;37.20
40534;DHT22;26233;51.894;10.192;2023-02-15T16:19:34;11.80;37.20